Atlantic Beach, NC

7:35 PM EDT on April 01, 2015 (GMT -0400)
Bogue McAlf | | Change Station
CLOSE
Current Station
Airport
Location: Swansboro,
Elevation: 23 ft
Nearby Weather Stations
Active Advisory: Frost Advisory

Elev 23 ft 34.69 °N, 77.03 °W | Updated 38 minutes ago

Clear
Clear
58 °F
Feels Like 58 °F
N
9
Wind Variable Wind from NE

Today
High -- | Low -- °F
--% Chance of Precip.
Yesterday
High -- | Low -- °F
Precip. -- in
6:54 AM 7:28 PM
Waxing Gibbous, 94% visible
Pressure 30.19 in
Visibility 10.0 miles
Clouds Clear
Dew Point 34 °F
Humidity 41%
Rainfall 0.00 in
Snow Depth Not available.
UV 0 out of 12
Pollen 10.30 out of 12
Air Quality Not available.
Flu Activity Not available.
METAR KNJM 012257Z 05008KT 10SM CLR 14/01 A3018 RMK AO2 SLP223 T01440011

More Conditions Fewer Conditions

Pressure 30.19 in
Visibility 10.0 miles
Clouds Clear
Dew Point 34 °F
Humidity 41%
Rainfall 0.00 in
Snow Depth Not available.
UV 0 out of 12
Pollen 10.30 out of 12
Air Quality Not available.
Flu Activity Not available.
METAR KNJM 012257Z 05008KT 10SM CLR 14/01 A3018 RMK AO2 SLP223 T01440011

More Conditions Fewer Conditions

10-Day Weather Forecast

Almanac

Astronomy

Apr. 01, 2015 Rise Set
Actual Time
Civil Twilight
Nautical Twilight
Astronomical Twilight
Moon
Length of Visible Light
Length of Day
Tomorrow will be .
, % of the Moon is Illuminated

Today's Extremes

State Highs State Lows

Community

WunderPhotos

Upload Photos

1,810,123 photos uploaded!

WunderBlogs® & News

Nearby

Air Quality

  Air Quality AQ Index Pollutant
Not available.

Snow Depth

Station Depth Elevation

Earthquake Activity

City Distance Mag. Time & Date
Minimum magnitude displayed is 2.5.

Coastal Water Temperatures

Place Temperature

Stations

Nearby Weather Stations

Station Location Temp. Windchill Dew Point Humidity Wind Precip. Elev Updated Type
                   
Frost Advisory
Statement as of 3:33 PM EDT on April 01, 2015

... Frost advisory in effect from 4 am to 8 am EDT Thursday...

The National Weather Service in Newport/Morehead City has issued
a frost advisory... which is in effect from 4 am to 8 am EDT
Thursday.

* Temperatures... in the middle 30s.

* Timing... 4 am to 8 am.

Precautionary/preparedness actions...

A frost advisory means that frost is possible. Sensitive outdoor
plants may be killed if left uncovered.